sensor_id;sensor_type;location;lat;lon;timestamp;temperature;humidity
11536;DHT22;5824;49.336;8.652;2023-10-08T00:01:35;16.40;1.00
11536;DHT22;5824;49.336;8.652;2023-10-08T00:04:07;16.40;1.00
11536;DHT22;5824;49.336;8.652;2023-10-08T00:06:33;16.60;1.00
11536;DHT22;5824;49.336;8.652;2023-10-08T00:08:59;16.70;1.00
11536;DHT22;5824;49.336;8.652;2023-10-08T00:11:35;17.00;1.00
11536;DHT22;5824;49.336;8.652;2023-10-08T00:14:02;17.00;1.00
11536;DHT22;5824;49.336;8.652;2023-10-08T00:16:30;17.00;1.00
11536;DHT22;5824;49.336;8.652;2023-10-08T00:18:59;17.10;1.00
11536;DHT22;5824;49.336;8.652;2023-10-08T00:21:29;17.10;1.00
11536;DHT22;5824;49.336;8.652;2023-10-08T00:23:57;17.10;1.00
11536;DHT22;5824;49.336;8.652;2023-10-08T00:26:26;17.00;1.00
11536;DHT22;5824;49.336;8.652;2023-10-08T00:28:59;17.00;1.00
11536;DHT22;5824;49.336;8.652;2023-10-08T00:31:25;16.90;1.00
11536;DHT22;5824;49.336;8.652;2023-10-08T00:33:55;16.90;1.00
11536;DHT22;5824;49.336;8.652;2023-10-08T00:36:22;16.80;1.00
11536;DHT22;5824;49.336;8.652;2023-10-08T00:38:50;16.70;1.00
11536;DHT22;5824;49.336;8.652;2023-10-08T00:41:19;16.60;1.00
11536;DHT22;5824;49.336;8.652;2023-10-08T00:43:48;16.50;1.00
11536;DHT22;5824;49.336;8.652;2023-10-08T00:46:14;16.40;1.00
11536;DHT22;5824;49.336;8.652;2023-10-08T00:48:53;16.20;1.00
11536;DHT22;5824;49.336;8.652;2023-10-08T00:51:22;16.10;1.00
11536;DHT22;5824;49.336;8.652;2023-10-08T00:53:57;15.90;1.00
11536;DHT22;5824;49.336;8.652;2023-10-08T00:56:30;15.80;1.00
11536;DHT22;5824;49.336;8.652;2023-10-08T00:59:19;15.70;1.00
11536;DHT22;5824;49.336;8.652;2023-10-08T01:01:47;15.60;1.00
11536;DHT22;5824;49.336;8.652;2023-10-08T01:04:17;15.60;1.00
11536;DHT22;5824;49.336;8.652;2023-10-08T01:06:44;15.50;1.00
11536;DHT22;5824;49.336;8.652;2023-10-08T01:09:12;15.40;1.00
11536;DHT22;5824;49.336;8.652;2023-10-08T01:11:44;15.30;1.00
11536;DHT22;5824;49.336;8.652;2023-10-08T01:14:16;15.30;1.00
11536;DHT22;5824;49.336;8.652;2023-10-08T01:16:46;15.20;1.00
11536;DHT22;5824;49.336;8.652;2023-10-08T01:19:18;15.10;1.00
11536;DHT22;5824;49.336;8.652;2023-10-08T01:21:44;15.00;1.00
11536;DHT22;5824;49.336;8.652;2023-10-08T01:24:10;15.00;1.00
11536;DHT22;5824;49.336;8.652;2023-10-08T01:26:41;14.90;1.00
11536;DHT22;5824;49.336;8.652;2023-10-08T01:29:11;14.80;1.00
11536;DHT22;5824;49.336;8.652;2023-10-08T01:31:45;14.70;1.00
11536;DHT22;5824;49.336;8.652;2023-10-08T01:34:11;14.70;1.00
11536;DHT22;5824;49.336;8.652;2023-10-08T01:36:41;14.60;1.00
11536;DHT22;5824;49.336;8.652;2023-10-08T01:39:09;14.50;1.00
11536;DHT22;5824;49.336;8.652;2023-10-08T01:41:42;14.50;1.00
11536;DHT22;5824;49.336;8.652;2023-10-08T01:44:07;14.40;1.00
11536;DHT22;5824;49.336;8.652;2023-10-08T01:46:34;14.30;1.00
11536;DHT22;5824;49.336;8.652;2023-10-08T01:49:00;14.30;1.00
11536;DHT22;5824;49.336;8.652;2023-10-08T01:51:29;14.30;1.00
11536;DHT22;5824;49.336;8.652;2023-10-08T01:54:03;14.30;1.00
11536;DHT22;5824;49.336;8.652;2023-10-08T01:56:37;14.30;1.00
11536;DHT22;5824;49.336;8.652;2023-10-08T01:59:02;14.30;1.00
11536;DHT22;5824;49.336;8.652;2023-10-08T02:01:29;14.30;1.00
11536;DHT22;5824;49.336;8.652;2023-10-08T02:03:55;14.20;1.00
11536;DHT22;5824;49.336;8.652;2023-10-08T02:06:21;14.20;1.00
11536;DHT22;5824;49.336;8.652;2023-10-08T02:08:47;14.20;1.00
11536;DHT22;5824;49.336;8.652;2023-10-08T02:11:13;14.10;1.00
11536;DHT22;5824;49.336;8.652;2023-10-08T02:13:41;14.00;1.00
11536;DHT22;5824;49.336;8.652;2023-10-08T02:16:07;14.00;1.00
11536;DHT22;5824;49.336;8.652;2023-10-08T02:18:33;13.90;1.00
11536;DHT22;5824;49.336;8.652;2023-10-08T02:20:58;13.80;1.00
11536;DHT22;5824;49.336;8.652;2023-10-08T02:23:24;13.80;1.00
11536;DHT22;5824;49.336;8.652;2023-10-08T02:25:50;13.70;1.00
11536;DHT22;5824;49.336;8.652;2023-10-08T02:28:15;13.70;1.00
11536;DHT22;5824;49.336;8.652;2023-10-08T02:30:42;13.70;1.00
11536;DHT22;5824;49.336;8.652;2023-10-08T02:33:08;13.60;1.00
11536;DHT22;5824;49.336;8.652;2023-10-08T02:35:44;13.60;1.00
11536;DHT22;5824;49.336;8.652;2023-10-08T02:38:12;13.50;1.00
11536;DHT22;5824;49.336;8.652;2023-10-08T02:40:49;13.60;1.00
11536;DHT22;5824;49.336;8.652;2023-10-08T02:43:16;13.50;1.00
11536;DHT22;5824;49.336;8.652;2023-10-08T02:45:44;13.50;1.00
11536;DHT22;5824;49.336;8.652;2023-10-08T02:48:13;13.50;1.00
11536;DHT22;5824;49.336;8.652;2023-10-08T02:50:44;13.50;1.00
11536;DHT22;5824;49.336;8.652;2023-10-08T02:53:11;13.50;1.00
11536;DHT22;5824;49.336;8.652;2023-10-08T02:55:40;13.40;1.00
11536;DHT22;5824;49.336;8.652;2023-10-08T02:58:13;13.40;1.00
11536;DHT22;5824;49.336;8.652;2023-10-08T03:00:46;13.40;1.00
11536;DHT22;5824;49.336;8.652;2023-10-08T03:03:16;13.40;1.00
11536;DHT22;5824;49.336;8.652;2023-10-08T03:05:52;13.30;1.00
11536;DHT22;5824;49.336;8.652;2023-10-08T03:08:18;13.30;1.00
11536;DHT22;5824;49.336;8.652;2023-10-08T03:10:52;13.30;1.00
11536;DHT22;5824;49.336;8.652;2023-10-08T03:13:21;13.00;1.00
11536;DHT22;5824;49.336;8.652;2023-10-08T03:15:47;13.10;1.00
11536;DHT22;5824;49.336;8.652;2023-10-08T03:18:29;13.20;1.00
11536;DHT22;5824;49.336;8.652;2023-10-08T03:21:04;13.20;1.00
11536;DHT22;5824;49.336;8.652;2023-10-08T03:23:32;13.10;1.00
11536;DHT22;5824;49.336;8.652;2023-10-08T03:26:03;13.10;1.00
11536;DHT22;5824;49.336;8.652;2023-10-08T03:28:37;13.10;1.00
11536;DHT22;5824;49.336;8.652;2023-10-08T03:31:03;13.10;1.00
11536;DHT22;5824;49.336;8.652;2023-10-08T03:33:39;13.00;1.00
11536;DHT22;5824;49.336;8.652;2023-10-08T03:36:06;13.00;1.00
11536;DHT22;5824;49.336;8.652;2023-10-08T03:38:40;13.00;1.00
11536;DHT22;5824;49.336;8.652;2023-10-08T03:41:10;13.00;1.00
11536;DHT22;5824;49.336;8.652;2023-10-08T03:43:42;13.00;1.00
11536;DHT22;5824;49.336;8.652;2023-10-08T03:46:30;12.90;1.00
11536;DHT22;5824;49.336;8.652;2023-10-08T03:48:57;12.90;1.00
11536;DHT22;5824;49.336;8.652;2023-10-08T03:51:23;12.90;1.00
11536;DHT22;5824;49.336;8.652;2023-10-08T03:53:53;12.80;1.00
11536;DHT22;5824;49.336;8.652;2023-10-08T03:56:31;12.90;1.00
11536;DHT22;5824;49.336;8.652;2023-10-08T03:58:57;12.80;1.00
11536;DHT22;5824;49.336;8.652;2023-10-08T04:01:28;12.90;1.00
11536;DHT22;5824;49.336;8.652;2023-10-08T04:03:58;12.90;1.00
11536;DHT22;5824;49.336;8.652;2023-10-08T04:06:26;12.90;1.00
11536;DHT22;5824;49.336;8.652;2023-10-08T04:08:57;12.80;1.00
11536;DHT22;5824;49.336;8.652;2023-10-08T04:11:35;12.80;1.00
11536;DHT22;5824;49.336;8.652;2023-10-08T04:14:04;12.80;1.00
11536;DHT22;5824;49.336;8.652;2023-10-08T04:16:31;12.80;1.00
11536;DHT22;5824;49.336;8.652;2023-10-08T04:18:57;12.80;1.00
11536;DHT22;5824;49.336;8.652;2023-10-08T04:21:23;12.80;1.00
11536;DHT22;5824;49.336;8.652;2023-10-08T04:23:53;12.80;1.00
11536;DHT22;5824;49.336;8.652;2023-10-08T04:26:22;12.80;1.00
11536;DHT22;5824;49.336;8.652;2023-10-08T04:28:55;12.80;1.00
11536;DHT22;5824;49.336;8.652;2023-10-08T04:31:23;12.80;1.00
11536;DHT22;5824;49.336;8.652;2023-10-08T04:33:54;12.80;1.00
11536;DHT22;5824;49.336;8.652;2023-10-08T04:36:20;12.80;1.00
11536;DHT22;5824;49.336;8.652;2023-10-08T04:38:46;12.80;1.00
11536;DHT22;5824;49.336;8.652;2023-10-08T04:41:19;12.80;1.00
11536;DHT22;5824;49.336;8.652;2023-10-08T04:43:45;12.90;1.00
11536;DHT22;5824;49.336;8.652;2023-10-08T04:46:11;12.80;1.00
11536;DHT22;5824;49.336;8.652;2023-10-08T04:48:59;12.80;1.00
11536;DHT22;5824;49.336;8.652;2023-10-08T04:51:30;12.70;1.00
11536;DHT22;5824;49.336;8.652;2023-10-08T04:54:00;12.70;1.00
11536;DHT22;5824;49.336;8.652;2023-10-08T04:56:26;12.70;1.00
11536;DHT22;5824;49.336;8.652;2023-10-08T04:58:53;12.70;1.00
11536;DHT22;5824;49.336;8.652;2023-10-08T05:01:19;12.70;1.00
11536;DHT22;5824;49.336;8.652;2023-10-08T05:04:04;12.70;1.00
11536;DHT22;5824;49.336;8.652;2023-10-08T05:06:31;12.60;1.00
11536;DHT22;5824;49.336;8.652;2023-10-08T05:09:01;12.60;1.00
11536;DHT22;5824;49.336;8.652;2023-10-08T05:11:36;12.60;1.00
11536;DHT22;5824;49.336;8.652;2023-10-08T05:14:12;12.60;1.00
11536;DHT22;5824;49.336;8.652;2023-10-08T05:17:01;12.60;1.00
11536;DHT22;5824;49.336;8.652;2023-10-08T05:19:40;12.60;1.00
11536;DHT22;5824;49.336;8.652;2023-10-08T05:22:07;12.50;1.00
11536;DHT22;5824;49.336;8.652;2023-10-08T05:24:51;12.50;1.00
11536;DHT22;5824;49.336;8.652;2023-10-08T05:27:34;12.60;1.00
11536;DHT22;5824;49.336;8.652;2023-10-08T05:30:19;12.60;1.00
11536;DHT22;5824;49.336;8.652;2023-10-08T05:33:06;12.60;1.00
11536;DHT22;5824;49.336;8.652;2023-10-08T05:35:39;12.70;1.00
11536;DHT22;5824;49.336;8.652;2023-10-08T05:38:05;12.70;1.00
11536;DHT22;5824;49.336;8.652;2023-10-08T05:40:51;12.70;1.00
11536;DHT22;5824;49.336;8.652;2023-10-08T05:46:09;12.70;1.00
11536;DHT22;5824;49.336;8.652;2023-10-08T05:48:46;12.70;1.00
11536;DHT22;5824;49.336;8.652;2023-10-08T05:51:26;12.80;1.00
11536;DHT22;5824;49.336;8.652;2023-10-08T05:54:23;12.80;1.00
11536;DHT22;5824;49.336;8.652;2023-10-08T05:56:56;12.80;1.00
11536;DHT22;5824;49.336;8.652;2023-10-08T05:59:41;12.80;1.00
11536;DHT22;5824;49.336;8.652;2023-10-08T06:02:23;12.80;1.00
11536;DHT22;5824;49.336;8.652;2023-10-08T06:05:07;12.80;1.00
11536;DHT22;5824;49.336;8.652;2023-10-08T06:07:52;12.80;1.00
11536;DHT22;5824;49.336;8.652;2023-10-08T06:10:25;12.80;1.00
11536;DHT22;5824;49.336;8.652;2023-10-08T06:13:00;12.80;1.00
11536;DHT22;5824;49.336;8.652;2023-10-08T06:15:49;12.90;1.00
11536;DHT22;5824;49.336;8.652;2023-10-08T06:23:26;13.20;1.00
11536;DHT22;5824;49.336;8.652;2023-10-08T06:25:54;13.30;1.00
11536;DHT22;5824;49.336;8.652;2023-10-08T06:28:25;13.40;1.00
11536;DHT22;5824;49.336;8.652;2023-10-08T06:30:53;13.50;1.00
11536;DHT22;5824;49.336;8.652;2023-10-08T06:33:20;13.60;1.00
11536;DHT22;5824;49.336;8.652;2023-10-08T06:35:46;13.70;1.00
11536;DHT22;5824;49.336;8.652;2023-10-08T06:38:30;13.80;1.00
11536;DHT22;5824;49.336;8.652;2023-10-08T06:40:59;14.00;1.00
11536;DHT22;5824;49.336;8.652;2023-10-08T06:43:35;14.20;1.00
11536;DHT22;5824;49.336;8.652;2023-10-08T06:46:05;14.30;1.00
11536;DHT22;5824;49.336;8.652;2023-10-08T06:48:33;14.50;1.00
11536;DHT22;5824;49.336;8.652;2023-10-08T06:51:00;14.60;1.00
11536;DHT22;5824;49.336;8.652;2023-10-08T06:53:33;14.70;1.00
11536;DHT22;5824;49.336;8.652;2023-10-08T06:56:00;14.70;1.00
11536;DHT22;5824;49.336;8.652;2023-10-08T06:58:30;14.80;1.00
11536;DHT22;5824;49.336;8.652;2023-10-08T07:01:00;14.90;1.00
11536;DHT22;5824;49.336;8.652;2023-10-08T07:03:33;15.10;1.00
11536;DHT22;5824;49.336;8.652;2023-10-08T07:05:59;15.20;1.00
11536;DHT22;5824;49.336;8.652;2023-10-08T07:08:29;15.30;1.00
11536;DHT22;5824;49.336;8.652;2023-10-08T07:11:00;15.40;1.00
11536;DHT22;5824;49.336;8.652;2023-10-08T07:13:37;15.40;1.00
11536;DHT22;5824;49.336;8.652;2023-10-08T07:16:04;15.60;1.00
11536;DHT22;5824;49.336;8.652;2023-10-08T07:18:31;15.70;1.00
11536;DHT22;5824;49.336;8.652;2023-10-08T07:20:59;15.80;1.00
11536;DHT22;5824;49.336;8.652;2023-10-08T07:23:37;15.90;1.00
11536;DHT22;5824;49.336;8.652;2023-10-08T07:26:19;16.20;1.00
11536;DHT22;5824;49.336;8.652;2023-10-08T07:28:49;16.50;1.00
11536;DHT22;5824;49.336;8.652;2023-10-08T07:31:19;16.80;1.00
11536;DHT22;5824;49.336;8.652;2023-10-08T07:33:49;17.10;1.00
11536;DHT22;5824;49.336;8.652;2023-10-08T07:36:41;17.30;1.00
11536;DHT22;5824;49.336;8.652;2023-10-08T07:39:07;17.50;1.00
11536;DHT22;5824;49.336;8.652;2023-10-08T07:41:34;17.80;1.00
11536;DHT22;5824;49.336;8.652;2023-10-08T07:44:00;17.80;1.00
11536;DHT22;5824;49.336;8.652;2023-10-08T07:46:26;18.00;1.00
11536;DHT22;5824;49.336;8.652;2023-10-08T07:48:52;18.30;1.00
11536;DHT22;5824;49.336;8.652;2023-10-08T07:51:18;18.60;1.00
11536;DHT22;5824;49.336;8.652;2023-10-08T07:53:50;18.80;1.00
11536;DHT22;5824;49.336;8.652;2023-10-08T07:56:20;18.90;1.00
11536;DHT22;5824;49.336;8.652;2023-10-08T07:58:45;19.20;1.00
11536;DHT22;5824;49.336;8.652;2023-10-08T08:01:12;19.30;1.00
11536;DHT22;5824;49.336;8.652;2023-10-08T08:03:39;19.50;1.00
11536;DHT22;5824;49.336;8.652;2023-10-08T08:06:10;19.60;1.00
11536;DHT22;5824;49.336;8.652;2023-10-08T08:08:37;19.90;1.00
11536;DHT22;5824;49.336;8.652;2023-10-08T08:11:07;20.20;1.00
11536;DHT22;5824;49.336;8.652;2023-10-08T08:13:38;20.50;1.00
11536;DHT22;5824;49.336;8.652;2023-10-08T08:16:04;20.80;1.00
11536;DHT22;5824;49.336;8.652;2023-10-08T08:18:49;21.00;1.00
11536;DHT22;5824;49.336;8.652;2023-10-08T08:21:19;21.20;1.00
11536;DHT22;5824;49.336;8.652;2023-10-08T08:23:48;21.20;1.00
11536;DHT22;5824;49.336;8.652;2023-10-08T08:26:23;21.10;1.00
11536;DHT22;5824;49.336;8.652;2023-10-08T08:29:02;21.10;1.00
11536;DHT22;5824;49.336;8.652;2023-10-08T08:31:29;21.60;1.00
11536;DHT22;5824;49.336;8.652;2023-10-08T08:34:01;22.30;1.00
11536;DHT22;5824;49.336;8.652;2023-10-08T08:36:29;22.90;1.00
11536;DHT22;5824;49.336;8.652;2023-10-08T08:38:57;23.20;1.00
11536;DHT22;5824;49.336;8.652;2023-10-08T08:41:23;23.00;1.00
11536;DHT22;5824;49.336;8.652;2023-10-08T08:43:53;22.70;1.00
11536;DHT22;5824;49.336;8.652;2023-10-08T08:46:28;22.40;1.00
11536;DHT22;5824;49.336;8.652;2023-10-08T08:48:55;22.50;1.00
11536;DHT22;5824;49.336;8.652;2023-10-08T08:51:23;22.30;1.00
11536;DHT22;5824;49.336;8.652;2023-10-08T08:53:49;22.40;1.00
11536;DHT22;5824;49.336;8.652;2023-10-08T08:56:15;22.70;1.00
11536;DHT22;5824;49.336;8.652;2023-10-08T08:58:42;22.90;1.00
11536;DHT22;5824;49.336;8.652;2023-10-08T09:01:12;22.90;1.00
11536;DHT22;5824;49.336;8.652;2023-10-08T09:03:38;23.00;1.00
11536;DHT22;5824;49.336;8.652;2023-10-08T09:06:04;22.90;1.00
11536;DHT22;5824;49.336;8.652;2023-10-08T09:08:35;22.60;1.00
11536;DHT22;5824;49.336;8.652;2023-10-08T09:11:01;22.30;1.00
11536;DHT22;5824;49.336;8.652;2023-10-08T09:13:28;22.00;1.00
11536;DHT22;5824;49.336;8.652;2023-10-08T09:16:13;22.00;1.00
11536;DHT22;5824;49.336;8.652;2023-10-08T09:18:44;22.10;1.00
11536;DHT22;5824;49.336;8.652;2023-10-08T09:21:12;22.10;1.00
11536;DHT22;5824;49.336;8.652;2023-10-08T09:23:49;22.00;1.00
11536;DHT22;5824;49.336;8.652;2023-10-08T09:26:17;21.80;1.00
11536;DHT22;5824;49.336;8.652;2023-10-08T09:28:47;21.80;1.00
11536;DHT22;5824;49.336;8.652;2023-10-08T09:31:14;21.70;1.00
11536;DHT22;5824;49.336;8.652;2023-10-08T09:33:40;21.60;1.00
11536;DHT22;5824;49.336;8.652;2023-10-08T09:36:07;21.70;1.00
11536;DHT22;5824;49.336;8.652;2023-10-08T09:38:36;21.60;1.00
11536;DHT22;5824;49.336;8.652;2023-10-08T09:41:02;21.40;1.00
11536;DHT22;5824;49.336;8.652;2023-10-08T09:43:31;21.30;1.00
11536;DHT22;5824;49.336;8.652;2023-10-08T09:46:16;21.30;1.00
11536;DHT22;5824;49.336;8.652;2023-10-08T09:48:50;21.30;1.00
11536;DHT22;5824;49.336;8.652;2023-10-08T09:51:19;21.30;1.00
11536;DHT22;5824;49.336;8.652;2023-10-08T09:56:28;21.00;1.00
11536;DHT22;5824;49.336;8.652;2023-10-08T09:58:54;21.20;1.00
11536;DHT22;5824;49.336;8.652;2023-10-08T10:01:20;21.40;1.00
11536;DHT22;5824;49.336;8.652;2023-10-08T10:03:47;21.70;1.00
11536;DHT22;5824;49.336;8.652;2023-10-08T10:06:15;21.70;1.00
11536;DHT22;5824;49.336;8.652;2023-10-08T10:08:45;21.80;1.00
11536;DHT22;5824;49.336;8.652;2023-10-08T10:11:11;21.80;1.00
11536;DHT22;5824;49.336;8.652;2023-10-08T10:13:42;22.00;1.00
11536;DHT22;5824;49.336;8.652;2023-10-08T10:16:17;22.20;1.00
11536;DHT22;5824;49.336;8.652;2023-10-08T10:18:44;22.80;1.00
11536;DHT22;5824;49.336;8.652;2023-10-08T10:23:49;23.80;1.00
11536;DHT22;5824;49.336;8.652;2023-10-08T10:26:30;24.40;1.00
11536;DHT22;5824;49.336;8.652;2023-10-08T10:31:38;25.00;1.00
11536;DHT22;5824;49.336;8.652;2023-10-08T10:34:07;24.90;1.00
11536;DHT22;5824;49.336;8.652;2023-10-08T10:36:35;24.70;1.00
11536;DHT22;5824;49.336;8.652;2023-10-08T10:39:00;24.60;1.00
11536;DHT22;5824;49.336;8.652;2023-10-08T10:41:27;24.40;1.00
11536;DHT22;5824;49.336;8.652;2023-10-08T10:43:53;24.60;1.00
11536;DHT22;5824;49.336;8.652;2023-10-08T10:46:19;24.90;1.00
11536;DHT22;5824;49.336;8.652;2023-10-08T10:49:10;25.50;1.00
11536;DHT22;5824;49.336;8.652;2023-10-08T10:51:59;25.90;1.00
11536;DHT22;5824;49.336;8.652;2023-10-08T10:54:25;26.20;1.00
11536;DHT22;5824;49.336;8.652;2023-10-08T10:56:51;26.40;1.00
11536;DHT22;5824;49.336;8.652;2023-10-08T10:59:32;26.80;1.00
11536;DHT22;5824;49.336;8.652;2023-10-08T11:02:06;26.90;1.00
11536;DHT22;5824;49.336;8.652;2023-10-08T11:04:49;27.50;1.00
11536;DHT22;5824;49.336;8.652;2023-10-08T11:07:20;27.40;1.00
11536;DHT22;5824;49.336;8.652;2023-10-08T11:09:50;27.40;1.00
11536;DHT22;5824;49.336;8.652;2023-10-08T11:12:20;27.10;1.00
11536;DHT22;5824;49.336;8.652;2023-10-08T11:14:58;27.10;1.00
11536;DHT22;5824;49.336;8.652;2023-10-08T11:17:25;27.50;1.00
11536;DHT22;5824;49.336;8.652;2023-10-08T11:19:54;28.10;1.00
11536;DHT22;5824;49.336;8.652;2023-10-08T11:22:20;28.20;1.00
11536;DHT22;5824;49.336;8.652;2023-10-08T11:24:48;28.00;1.00
11536;DHT22;5824;49.336;8.652;2023-10-08T11:27:17;28.00;1.00
11536;DHT22;5824;49.336;8.652;2023-10-08T11:29:55;28.10;1.00
11536;DHT22;5824;49.336;8.652;2023-10-08T11:32:26;28.40;1.00
11536;DHT22;5824;49.336;8.652;2023-10-08T11:34:56;29.00;1.00
11536;DHT22;5824;49.336;8.652;2023-10-08T11:37:29;30.30;1.00
11536;DHT22;5824;49.336;8.652;2023-10-08T11:39:55;32.20;1.00
11536;DHT22;5824;49.336;8.652;2023-10-08T11:42:24;35.20;1.00
11536;DHT22;5824;49.336;8.652;2023-10-08T11:45:11;35.90;1.00
11536;DHT22;5824;49.336;8.652;2023-10-08T11:47:55;37.30;1.00
11536;DHT22;5824;49.336;8.652;2023-10-08T11:50:29;37.70;1.00
11536;DHT22;5824;49.336;8.652;2023-10-08T11:53:00;37.70;1.00
11536;DHT22;5824;49.336;8.652;2023-10-08T11:55:32;37.70;1.00
11536;DHT22;5824;49.336;8.652;2023-10-08T11:58:03;38.30;1.00
11536;DHT22;5824;49.336;8.652;2023-10-08T12:00:42;38.90;1.00
11536;DHT22;5824;49.336;8.652;2023-10-08T12:03:15;39.10;1.00
11536;DHT22;5824;49.336;8.652;2023-10-08T12:05:48;39.30;1.00
11536;DHT22;5824;49.336;8.652;2023-10-08T12:08:15;39.80;1.00
11536;DHT22;5824;49.336;8.652;2023-10-08T12:10:46;40.10;1.00
11536;DHT22;5824;49.336;8.652;2023-10-08T12:13:14;39.50;1.00
11536;DHT22;5824;49.336;8.652;2023-10-08T12:15:42;39.20;1.00
11536;DHT22;5824;49.336;8.652;2023-10-08T12:18:10;38.50;1.00
11536;DHT22;5824;49.336;8.652;2023-10-08T12:20:50;38.50;1.00
11536;DHT22;5824;49.336;8.652;2023-10-08T12:23:16;38.50;1.00
11536;DHT22;5824;49.336;8.652;2023-10-08T12:25:55;39.00;1.00
11536;DHT22;5824;49.336;8.652;2023-10-08T12:28:21;39.40;1.00
11536;DHT22;5824;49.336;8.652;2023-10-08T12:30:49;39.50;1.00
11536;DHT22;5824;49.336;8.652;2023-10-08T12:33:18;40.20;1.00
11536;DHT22;5824;49.336;8.652;2023-10-08T12:35:48;40.50;1.00
11536;DHT22;5824;49.336;8.652;2023-10-08T12:38:14;40.50;1.00
11536;DHT22;5824;49.336;8.652;2023-10-08T12:40:43;40.60;1.00
11536;DHT22;5824;49.336;8.652;2023-10-08T12:43:18;39.90;1.00
11536;DHT22;5824;49.336;8.652;2023-10-08T12:45:48;39.30;1.00
11536;DHT22;5824;49.336;8.652;2023-10-08T12:48:26;38.90;1.00
11536;DHT22;5824;49.336;8.652;2023-10-08T12:50:56;38.90;1.00
11536;DHT22;5824;49.336;8.652;2023-10-08T12:53:26;39.30;1.00
11536;DHT22;5824;49.336;8.652;2023-10-08T12:56:05;39.60;1.00
11536;DHT22;5824;49.336;8.652;2023-10-08T12:58:34;39.90;1.00
11536;DHT22;5824;49.336;8.652;2023-10-08T13:01:15;40.20;1.00
11536;DHT22;5824;49.336;8.652;2023-10-08T13:03:43;39.50;1.00
11536;DHT22;5824;49.336;8.652;2023-10-08T13:06:17;38.70;1.00
11536;DHT22;5824;49.336;8.652;2023-10-08T13:08:54;37.90;1.00
11536;DHT22;5824;49.336;8.652;2023-10-08T13:11:21;37.30;1.00
11536;DHT22;5824;49.336;8.652;2023-10-08T13:13:50;36.20;1.00
11536;DHT22;5824;49.336;8.652;2023-10-08T13:16:17;35.80;1.00
11536;DHT22;5824;49.336;8.652;2023-10-08T13:18:43;35.90;1.00
11536;DHT22;5824;49.336;8.652;2023-10-08T13:21:09;36.00;1.00
11536;DHT22;5824;49.336;8.652;2023-10-08T13:23:35;36.30;1.00
11536;DHT22;5824;49.336;8.652;2023-10-08T13:26:01;36.30;1.00
11536;DHT22;5824;49.336;8.652;2023-10-08T13:28:32;36.40;1.00
11536;DHT22;5824;49.336;8.652;2023-10-08T13:31:00;35.70;1.00
11536;DHT22;5824;49.336;8.652;2023-10-08T13:33:26;35.40;1.00
11536;DHT22;5824;49.336;8.652;2023-10-08T13:35:51;35.20;1.00
11536;DHT22;5824;49.336;8.652;2023-10-08T13:38:18;34.60;1.00
11536;DHT22;5824;49.336;8.652;2023-10-08T13:40:48;34.10;1.00
11536;DHT22;5824;49.336;8.652;2023-10-08T13:43:30;33.90;1.00
11536;DHT22;5824;49.336;8.652;2023-10-08T13:46:06;33.70;1.00
11536;DHT22;5824;49.336;8.652;2023-10-08T13:48:35;33.00;1.00
11536;DHT22;5824;49.336;8.652;2023-10-08T13:51:03;32.30;1.00
11536;DHT22;5824;49.336;8.652;2023-10-08T13:53:33;32.10;1.00
11536;DHT22;5824;49.336;8.652;2023-10-08T13:56:00;32.00;1.00
11536;DHT22;5824;49.336;8.652;2023-10-08T13:58:30;31.90;1.00
11536;DHT22;5824;49.336;8.652;2023-10-08T14:00:59;31.80;1.00
11536;DHT22;5824;49.336;8.652;2023-10-08T14:03:29;31.20;1.00
11536;DHT22;5824;49.336;8.652;2023-10-08T14:05:58;30.90;1.00
11536;DHT22;5824;49.336;8.652;2023-10-08T14:08:28;30.50;1.00
11536;DHT22;5824;49.336;8.652;2023-10-08T14:10:54;30.10;1.00
11536;DHT22;5824;49.336;8.652;2023-10-08T14:13:25;29.90;1.00
11536;DHT22;5824;49.336;8.652;2023-10-08T14:15:52;29.90;1.00
11536;DHT22;5824;49.336;8.652;2023-10-08T14:18:22;29.70;1.00
11536;DHT22;5824;49.336;8.652;2023-10-08T14:20:52;29.70;1.00
11536;DHT22;5824;49.336;8.652;2023-10-08T14:23:21;29.80;1.00
11536;DHT22;5824;49.336;8.652;2023-10-08T14:25:48;29.90;1.00
11536;DHT22;5824;49.336;8.652;2023-10-08T14:28:16;29.80;1.00
11536;DHT22;5824;49.336;8.652;2023-10-08T14:30:50;29.60;1.00
11536;DHT22;5824;49.336;8.652;2023-10-08T14:33:21;29.00;1.00
11536;DHT22;5824;49.336;8.652;2023-10-08T14:35:52;28.80;1.00
11536;DHT22;5824;49.336;8.652;2023-10-08T14:38:37;28.20;1.00
11536;DHT22;5824;49.336;8.652;2023-10-08T14:41:20;27.80;1.00
11536;DHT22;5824;49.336;8.652;2023-10-08T14:44:04;27.40;1.00
11536;DHT22;5824;49.336;8.652;2023-10-08T14:46:32;27.20;1.00
11536;DHT22;5824;49.336;8.652;2023-10-08T14:48:59;26.90;1.00
11536;DHT22;5824;49.336;8.652;2023-10-08T14:51:25;26.80;1.00
11536;DHT22;5824;49.336;8.652;2023-10-08T14:53:52;26.80;1.00
11536;DHT22;5824;49.336;8.652;2023-10-08T14:56:17;26.70;1.00
11536;DHT22;5824;49.336;8.652;2023-10-08T14:58:45;26.80;1.00
11536;DHT22;5824;49.336;8.652;2023-10-08T15:01:10;26.90;1.00
11536;DHT22;5824;49.336;8.652;2023-10-08T15:03:38;27.00;1.00
11536;DHT22;5824;49.336;8.652;2023-10-08T15:06:04;27.10;1.00
11536;DHT22;5824;49.336;8.652;2023-10-08T15:08:30;27.40;1.00
11536;DHT22;5824;49.336;8.652;2023-10-08T15:10:58;27.60;1.00
11536;DHT22;5824;49.336;8.652;2023-10-08T15:13:23;27.80;1.00
11536;DHT22;5824;49.336;8.652;2023-10-08T15:15:50;27.80;1.00
11536;DHT22;5824;49.336;8.652;2023-10-08T15:18:16;27.80;1.00
11536;DHT22;5824;49.336;8.652;2023-10-08T15:20:44;27.60;1.00
11536;DHT22;5824;49.336;8.652;2023-10-08T15:23:09;27.40;1.00
11536;DHT22;5824;49.336;8.652;2023-10-08T15:25:37;27.40;1.00
11536;DHT22;5824;49.336;8.652;2023-10-08T15:28:04;27.40;1.00
11536;DHT22;5824;49.336;8.652;2023-10-08T15:30:29;27.00;1.00
11536;DHT22;5824;49.336;8.652;2023-10-08T15:32:55;26.60;1.00
11536;DHT22;5824;49.336;8.652;2023-10-08T15:35:20;26.50;1.00
11536;DHT22;5824;49.336;8.652;2023-10-08T15:37:49;26.40;1.00
11536;DHT22;5824;49.336;8.652;2023-10-08T15:40:15;26.30;1.00
11536;DHT22;5824;49.336;8.652;2023-10-08T15:42:49;26.10;1.00
11536;DHT22;5824;49.336;8.652;2023-10-08T15:45:17;26.00;1.00
11536;DHT22;5824;49.336;8.652;2023-10-08T15:47:42;25.80;1.00
11536;DHT22;5824;49.336;8.652;2023-10-08T15:50:08;25.70;1.00
11536;DHT22;5824;49.336;8.652;2023-10-08T15:52:37;25.60;1.00
11536;DHT22;5824;49.336;8.652;2023-10-08T15:55:06;25.50;1.00
11536;DHT22;5824;49.336;8.652;2023-10-08T15:57:33;25.30;1.00
11536;DHT22;5824;49.336;8.652;2023-10-08T15:59:58;25.30;1.00
11536;DHT22;5824;49.336;8.652;2023-10-08T16:02:24;24.90;1.00
11536;DHT22;5824;49.336;8.652;2023-10-08T16:04:49;24.80;1.00
11536;DHT22;5824;49.336;8.652;2023-10-08T16:07:15;24.70;1.00
11536;DHT22;5824;49.336;8.652;2023-10-08T16:09:41;24.50;1.00
11536;DHT22;5824;49.336;8.652;2023-10-08T16:12:07;24.20;1.00
11536;DHT22;5824;49.336;8.652;2023-10-08T16:14:33;24.20;1.00
11536;DHT22;5824;49.336;8.652;2023-10-08T16:16:58;24.00;1.00
11536;DHT22;5824;49.336;8.652;2023-10-08T16:19:24;23.90;1.00
11536;DHT22;5824;49.336;8.652;2023-10-08T16:21:52;23.80;1.00
11536;DHT22;5824;49.336;8.652;2023-10-08T16:24:20;23.60;1.00
11536;DHT22;5824;49.336;8.652;2023-10-08T16:26:49;23.60;1.00
11536;DHT22;5824;49.336;8.652;2023-10-08T16:29:15;23.30;1.00
11536;DHT22;5824;49.336;8.652;2023-10-08T16:31:41;23.10;1.00
11536;DHT22;5824;49.336;8.652;2023-10-08T16:34:10;23.10;1.00
11536;DHT22;5824;49.336;8.652;2023-10-08T16:36:37;23.00;1.00
11536;DHT22;5824;49.336;8.652;2023-10-08T16:39:04;22.80;1.00